Terminal Aerodrome Forecast
Issued by NWS Northern Indiana

Home | Current Version | Previous Version | Graphics & Text | Print | Product List | Glossary On
Versions: 1 2 3 4 5 6 7 8 9 10 11 12 13 14 15 16 17 18 19 20 21
332
FTUS43 KIWX 301736
TAFFWA
TAF
KFWA 301736Z 3018/0118 08014G20KT 3SM -RA BR SCT008 OVC025
     FM302000 09014G20KT 3SM -RA BR OVC008
     FM010400 10008KT 3SM BR OVC005
     FM011200 02004KT 6SM BR OVC010
     FM011400 04006KT P6SM BKN020=

USA.gov is the U.S. government's official web portal to all federal, state and local government web resources and services.